Airfield :
LOGIN :

Register | Disclaimer

   EN    FR    IT 

 










Legend :    VFR   Marginal VFR   IFR   Intensive IFR   Very Intensive IFR
Visi :
Ceiling :
>= 8 km
>= 3000ft
5 to 8 km
1000 to 3000 ft
1500m to 5 km
500 to 1000 ft
800 to 1500m
200 to 500 ft
< 800m
< 200 ft
Symbols :   Thunderstorms  Fog  Heavy snow  Heavy precipitations  Wind > 20 kt
SIGMETs :     Misc.  Thunderstorms  Icing  Turbulence  Mountain Waves  Volcanic Ashes







- Airport Elevation : 203 ft
- IATA code : XMJ
- Download approach charts


LFBM - Mont-De-Marsan

CURRENT METAR :
  • 161530Z AUTO 11006KT 080V140 CAVOK 18/04 Q1023 NOSIG

EXPIRED METARs :
  • 161500Z AUTO 08006KT 040V120 CAVOK 19/04 Q1024 NOSIG
  • 161430Z AUTO 10007KT 080V140 CAVOK 19/04 Q1024 NOSIG
  • 161400Z AUTO 09004KT 040V160 CAVOK 19/04 Q1024
  • 161330Z AUTO 14005KT 060V190 CAVOK 18/05 Q1025 NOSIG
  • 161300Z AUTO 15006KT 100V170 CAVOK 18/06 Q1025 NOSIG

TAF TAF LFBM
Valid from the 16 at 15:00 until the 17 at 15:00 UTC


161400Z 1615/1715 10005KT CAVOK
TEMPO 1703/1708 BKN004
No reported NOTAMs for that airfield.



MET'MAP, your aeronautical weather chart ! - Copyright ORBIFLY December 2007 - Disclaimer

ORBIFLY MET'MAP TEAM :

Programming & Development : Alexandra Zaïnal
Concept & Development : Baudouin d'Aumeries
Co-Development & Prog : Marc-Olivier Méhu
Technical & hardware support : Manuel Goepfert

Contact : metmap@orbifly.com




SOURCES & CREDITS :

   NOAA